sensor_id;sensor_type;location;lat;lon;timestamp;P1;durP1;ratioP1;P2;durP2;ratioP2
39788;SDS011;25478;42.626;23.320;2022-11-11T00:00:06;45.08;;;24.58;;
39788;SDS011;25478;42.626;23.320;2022-11-11T00:02:53;44.22;;;25.90;;
39788;SDS011;25478;42.626;23.320;2022-11-11T00:05:38;44.90;;;25.07;;
39788;SDS011;25478;42.626;23.320;2022-11-11T00:08:22;36.08;;;19.20;;
39788;SDS011;25478;42.626;23.320;2022-11-11T00:11:07;40.90;;;23.52;;
39788;SDS011;25478;42.626;23.320;2022-11-11T00:13:52;43.17;;;24.30;;
39788;SDS011;25478;42.626;23.320;2022-11-11T00:16:36;34.40;;;17.83;;
39788;SDS011;25478;42.626;23.320;2022-11-11T00:19:39;42.33;;;23.50;;
39788;SDS011;25478;42.626;23.320;2022-11-11T00:22:42;43.83;;;25.43;;
39788;SDS011;25478;42.626;23.320;2022-11-11T00:25:45;44.60;;;25.53;;
39788;SDS011;25478;42.626;23.320;2022-11-11T00:28:29;46.63;;;25.20;;
39788;SDS011;25478;42.626;23.320;2022-11-11T00:31:13;44.72;;;25.90;;
39788;SDS011;25478;42.626;23.320;2022-11-11T00:33:58;43.30;;;24.33;;
39788;SDS011;25478;42.626;23.320;2022-11-11T00:36:42;33.60;;;18.60;;
39788;SDS011;25478;42.626;23.320;2022-11-11T00:39:26;46.97;;;24.70;;
39788;SDS011;25478;42.626;23.320;2022-11-11T00:42:10;45.80;;;25.02;;
39788;SDS011;25478;42.626;23.320;2022-11-11T00:44:53;45.35;;;25.20;;
39788;SDS011;25478;42.626;23.320;2022-11-11T00:47:38;42.00;;;24.42;;
39788;SDS011;25478;42.626;23.320;2022-11-11T00:50:41;46.47;;;25.53;;
39788;SDS011;25478;42.626;23.320;2022-11-11T00:53:43;45.63;;;25.17;;
39788;SDS011;25478;42.626;23.320;2022-11-11T00:56:27;45.70;;;25.80;;
39788;SDS011;25478;42.626;23.320;2022-11-11T00:59:11;42.50;;;24.00;;
39788;SDS011;25478;42.626;23.320;2022-11-11T01:01:55;42.10;;;24.33;;
39788;SDS011;25478;42.626;23.320;2022-11-11T01:04:39;45.08;;;24.80;;
39788;SDS011;25478;42.626;23.320;2022-11-11T01:07:23;41.50;;;24.27;;
39788;SDS011;25478;42.626;23.320;2022-11-11T01:10:07;48.42;;;26.55;;
39788;SDS011;25478;42.626;23.320;2022-11-11T01:12:54;52.65;;;26.88;;
39788;SDS011;25478;42.626;23.320;2022-11-11T01:15:58;48.87;;;27.37;;
39788;SDS011;25478;42.626;23.320;2022-11-11T01:18:44;49.30;;;27.83;;
39788;SDS011;25478;42.626;23.320;2022-11-11T01:21:28;51.80;;;27.65;;
39788;SDS011;25478;42.626;23.320;2022-11-11T01:24:12;44.25;;;25.17;;
39788;SDS011;25478;42.626;23.320;2022-11-11T01:26:56;48.85;;;26.83;;
39788;SDS011;25478;42.626;23.320;2022-11-11T01:29:40;49.65;;;26.63;;
39788;SDS011;25478;42.626;23.320;2022-11-11T01:32:24;46.47;;;25.58;;
39788;SDS011;25478;42.626;23.320;2022-11-11T01:35:08;49.58;;;26.02;;
39788;SDS011;25478;42.626;23.320;2022-11-11T01:37:52;47.80;;;26.17;;
39788;SDS011;25478;42.626;23.320;2022-11-11T01:40:44;48.97;;;26.75;;
39788;SDS011;25478;42.626;23.320;2022-11-11T01:43:29;48.27;;;26.70;;
39788;SDS011;25478;42.626;23.320;2022-11-11T01:46:18;50.77;;;26.93;;
39788;SDS011;25478;42.626;23.320;2022-11-11T01:55:20;48.60;;;28.33;;
39788;SDS011;25478;42.626;23.320;2022-11-11T01:58:07;53.20;;;29.57;;
39788;SDS011;25478;42.626;23.320;2022-11-11T02:00:57;53.87;;;29.33;;
39788;SDS011;25478;42.626;23.320;2022-11-11T02:03:43;50.77;;;28.87;;
39788;SDS011;25478;42.626;23.320;2022-11-11T02:06:50;50.50;;;28.53;;
39788;SDS011;25478;42.626;23.320;2022-11-11T02:09:37;54.20;;;29.40;;
39788;SDS011;25478;42.626;23.320;2022-11-11T02:12:25;53.63;;;29.90;;
39788;SDS011;25478;42.626;23.320;2022-11-11T02:15:28;50.33;;;28.70;;
39788;SDS011;25478;42.626;23.320;2022-11-11T02:18:11;52.92;;;29.60;;
39788;SDS011;25478;42.626;23.320;2022-11-11T02:20:56;53.00;;;29.95;;
39788;SDS011;25478;42.626;23.320;2022-11-11T02:26:54;55.07;;;30.90;;
39788;SDS011;25478;42.626;23.320;2022-11-11T02:29:40;54.53;;;30.80;;
39788;SDS011;25478;42.626;23.320;2022-11-11T02:32:27;53.17;;;30.83;;
39788;SDS011;25478;42.626;23.320;2022-11-11T02:35:13;52.23;;;29.23;;
39788;SDS011;25478;42.626;23.320;2022-11-11T02:38:06;50.97;;;27.03;;
39788;SDS011;25478;42.626;23.320;2022-11-11T02:40:51;48.80;;;26.37;;
39788;SDS011;25478;42.626;23.320;2022-11-11T02:43:54;51.33;;;26.73;;
39788;SDS011;25478;42.626;23.320;2022-11-11T02:46:38;45.60;;;26.05;;
39788;SDS011;25478;42.626;23.320;2022-11-11T02:49:24;48.30;;;26.88;;
39788;SDS011;25478;42.626;23.320;2022-11-11T02:52:08;49.43;;;27.70;;
39788;SDS011;25478;42.626;23.320;2022-11-11T02:54:52;45.17;;;26.25;;
39788;SDS011;25478;42.626;23.320;2022-11-11T02:57:35;50.08;;;26.75;;
39788;SDS011;25478;42.626;23.320;2022-11-11T03:00:20;43.78;;;25.98;;
39788;SDS011;25478;42.626;23.320;2022-11-11T03:03:04;48.58;;;25.92;;
39788;SDS011;25478;42.626;23.320;2022-11-11T03:05:48;48.25;;;27.02;;
39788;SDS011;25478;42.626;23.320;2022-11-11T03:08:33;43.25;;;25.58;;
39788;SDS011;25478;42.626;23.320;2022-11-11T03:11:17;44.97;;;25.73;;
39788;SDS011;25478;42.626;23.320;2022-11-11T03:14:10;42.30;;;25.83;;
39788;SDS011;25478;42.626;23.320;2022-11-11T03:16:54;43.05;;;25.38;;
39788;SDS011;25478;42.626;23.320;2022-11-11T03:19:57;47.43;;;26.53;;
39788;SDS011;25478;42.626;23.320;2022-11-11T03:23:09;43.23;;;26.47;;
39788;SDS011;25478;42.626;23.320;2022-11-11T03:25:53;46.60;;;25.57;;
39788;SDS011;25478;42.626;23.320;2022-11-11T03:28:37;47.45;;;26.20;;
39788;SDS011;25478;42.626;23.320;2022-11-11T03:31:21;44.72;;;24.35;;
39788;SDS011;25478;42.626;23.320;2022-11-11T03:34:05;43.83;;;25.70;;
39788;SDS011;25478;42.626;23.320;2022-11-11T03:37:02;43.67;;;25.53;;
39788;SDS011;25478;42.626;23.320;2022-11-11T03:40:06;43.13;;;24.80;;
39788;SDS011;25478;42.626;23.320;2022-11-11T03:42:51;38.37;;;23.63;;
39788;SDS011;25478;42.626;23.320;2022-11-11T03:45:35;41.05;;;24.23;;
39788;SDS011;25478;42.626;23.320;2022-11-11T03:48:19;40.60;;;23.55;;
39788;SDS011;25478;42.626;23.320;2022-11-11T03:51:04;40.67;;;23.58;;
39788;SDS011;25478;42.626;23.320;2022-11-11T03:53:48;39.58;;;22.88;;
39788;SDS011;25478;42.626;23.320;2022-11-11T03:56:32;40.28;;;24.02;;
39788;SDS011;25478;42.626;23.320;2022-11-11T03:59:17;40.53;;;23.52;;
39788;SDS011;25478;42.626;23.320;2022-11-11T04:02:01;39.63;;;23.43;;
39788;SDS011;25478;42.626;23.320;2022-11-11T04:05:17;43.43;;;26.20;;
39788;SDS011;25478;42.626;23.320;2022-11-11T04:08:21;44.47;;;24.73;;
39788;SDS011;25478;42.626;23.320;2022-11-11T04:11:26;48.30;;;25.50;;
39788;SDS011;25478;42.626;23.320;2022-11-11T04:14:13;43.90;;;26.37;;
39788;SDS011;25478;42.626;23.320;2022-11-11T04:17:16;45.07;;;25.80;;
39788;SDS011;25478;42.626;23.320;2022-11-11T04:20:00;43.17;;;25.63;;
39788;SDS011;25478;42.626;23.320;2022-11-11T04:23:03;41.43;;;25.20;;
39788;SDS011;25478;42.626;23.320;2022-11-11T04:25:47;42.72;;;26.33;;
39788;SDS011;25478;42.626;23.320;2022-11-11T04:28:31;36.50;;;21.67;;
39788;SDS011;25478;42.626;23.320;2022-11-11T04:31:34;33.73;;;20.53;;
39788;SDS011;25478;42.626;23.320;2022-11-11T04:34:18;28.95;;;16.38;;
39788;SDS011;25478;42.626;23.320;2022-11-11T04:37:02;38.92;;;22.05;;
39788;SDS011;25478;42.626;23.320;2022-11-11T04:39:46;38.05;;;21.75;;
39788;SDS011;25478;42.626;23.320;2022-11-11T04:42:51;38.97;;;22.30;;
39788;SDS011;25478;42.626;23.320;2022-11-11T04:45:36;32.77;;;19.73;;
39788;SDS011;25478;42.626;23.320;2022-11-11T04:48:21;35.97;;;21.80;;
39788;SDS011;25478;42.626;23.320;2022-11-11T04:51:05;36.58;;;22.35;;
39788;SDS011;25478;42.626;23.320;2022-11-11T04:53:49;34.42;;;19.52;;
39788;SDS011;25478;42.626;23.320;2022-11-11T04:56:33;37.65;;;21.65;;
39788;SDS011;25478;42.626;23.320;2022-11-11T04:59:36;34.50;;;20.73;;
39788;SDS011;25478;42.626;23.320;2022-11-11T05:02:20;34.53;;;22.23;;
39788;SDS011;25478;42.626;23.320;2022-11-11T05:05:23;37.60;;;21.83;;
39788;SDS011;25478;42.626;23.320;2022-11-11T05:08:08;37.60;;;21.60;;
39788;SDS011;25478;42.626;23.320;2022-11-11T05:11:12;35.53;;;21.23;;
39788;SDS011;25478;42.626;23.320;2022-11-11T05:13:57;35.80;;;21.10;;
39788;SDS011;25478;42.626;23.320;2022-11-11T05:17:05;31.77;;;19.37;;
39788;SDS011;25478;42.626;23.320;2022-11-11T05:20:08;33.97;;;20.50;;
39788;SDS011;25478;42.626;23.320;2022-11-11T05:23:11;38.10;;;21.70;;
39788;SDS011;25478;42.626;23.320;2022-11-11T05:25:55;34.30;;;19.35;;
39788;SDS011;25478;42.626;23.320;2022-11-11T05:28:39;33.05;;;20.88;;
39788;SDS011;25478;42.626;23.320;2022-11-11T05:31:23;32.17;;;19.95;;
39788;SDS011;25478;42.626;23.320;2022-11-11T05:34:07;33.53;;;19.83;;
39788;SDS011;25478;42.626;23.320;2022-11-11T05:36:51;33.95;;;20.98;;
39788;SDS011;25478;42.626;23.320;2022-11-11T05:39:35;31.50;;;18.83;;
39788;SDS011;25478;42.626;23.320;2022-11-11T05:42:18;30.10;;;17.92;;
39788;SDS011;25478;42.626;23.320;2022-11-11T05:45:02;28.00;;;18.80;;
39788;SDS011;25478;42.626;23.320;2022-11-11T05:47:47;29.27;;;18.67;;
39788;SDS011;25478;42.626;23.320;2022-11-11T05:50:31;34.22;;;20.10;;
39788;SDS011;25478;42.626;23.320;2022-11-11T05:53:15;31.42;;;18.08;;
39788;SDS011;25478;42.626;23.320;2022-11-11T05:55:59;33.33;;;19.77;;
39788;SDS011;25478;42.626;23.320;2022-11-11T05:58:43;34.35;;;18.83;;
39788;SDS011;25478;42.626;23.320;2022-11-11T06:01:27;33.38;;;20.23;;
39788;SDS011;25478;42.626;23.320;2022-11-11T06:04:11;39.28;;;23.58;;
39788;SDS011;25478;42.626;23.320;2022-11-11T06:06:54;32.92;;;21.35;;
39788;SDS011;25478;42.626;23.320;2022-11-11T06:09:39;33.67;;;20.83;;
39788;SDS011;25478;42.626;23.320;2022-11-11T06:12:24;33.77;;;19.70;;
39788;SDS011;25478;42.626;23.320;2022-11-11T06:15:08;33.15;;;19.40;;
39788;SDS011;25478;42.626;23.320;2022-11-11T06:17:52;35.33;;;20.33;;
39788;SDS011;25478;42.626;23.320;2022-11-11T06:20:36;47.28;;;26.27;;
39788;SDS011;25478;42.626;23.320;2022-11-11T06:23:20;39.85;;;24.00;;
39788;SDS011;25478;42.626;23.320;2022-11-11T06:26:05;40.67;;;24.03;;
39788;SDS011;25478;42.626;23.320;2022-11-11T06:28:55;43.43;;;24.37;;
39788;SDS011;25478;42.626;23.320;2022-11-11T06:31:40;40.58;;;23.98;;
39788;SDS011;25478;42.626;23.320;2022-11-11T06:34:24;39.05;;;23.40;;
39788;SDS011;25478;42.626;23.320;2022-11-11T06:37:08;39.70;;;23.52;;
39788;SDS011;25478;42.626;23.320;2022-11-11T06:39:52;38.47;;;22.10;;
39788;SDS011;25478;42.626;23.320;2022-11-11T06:42:36;39.28;;;23.05;;
39788;SDS011;25478;42.626;23.320;2022-11-11T06:45:20;42.55;;;23.88;;
39788;SDS011;25478;42.626;23.320;2022-11-11T06:48:05;37.77;;;22.07;;
39788;SDS011;25478;42.626;23.320;2022-11-11T06:50:50;32.58;;;20.13;;
39788;SDS011;25478;42.626;23.320;2022-11-11T06:53:35;34.00;;;20.33;;
39788;SDS011;25478;42.626;23.320;2022-11-11T06:56:19;37.00;;;23.15;;
39788;SDS011;25478;42.626;23.320;2022-11-11T06:59:03;40.97;;;23.05;;
39788;SDS011;25478;42.626;23.320;2022-11-11T07:01:49;36.70;;;21.38;;
39788;SDS011;25478;42.626;23.320;2022-11-11T07:04:33;39.10;;;22.43;;
39788;SDS011;25478;42.626;23.320;2022-11-11T07:07:17;48.17;;;26.08;;
39788;SDS011;25478;42.626;23.320;2022-11-11T07:10:01;46.67;;;26.40;;
39788;SDS011;25478;42.626;23.320;2022-11-11T07:12:46;49.03;;;27.90;;
39788;SDS011;25478;42.626;23.320;2022-11-11T07:15:31;51.42;;;28.08;;
39788;SDS011;25478;42.626;23.320;2022-11-11T07:18:15;52.03;;;28.87;;
39788;SDS011;25478;42.626;23.320;2022-11-11T07:20:59;58.65;;;31.20;;
39788;SDS011;25478;42.626;23.320;2022-11-11T07:23:43;45.70;;;26.63;;
39788;SDS011;25478;42.626;23.320;2022-11-11T07:26:27;42.05;;;24.02;;
39788;SDS011;25478;42.626;23.320;2022-11-11T07:29:11;38.05;;;22.23;;
39788;SDS011;25478;42.626;23.320;2022-11-11T07:31:57;40.17;;;22.57;;
39788;SDS011;25478;42.626;23.320;2022-11-11T07:34:41;42.63;;;22.58;;
39788;SDS011;25478;42.626;23.320;2022-11-11T07:37:25;40.67;;;22.67;;
39788;SDS011;25478;42.626;23.320;2022-11-11T07:40:10;40.28;;;22.73;;
39788;SDS011;25478;42.626;23.320;2022-11-11T07:42:56;38.20;;;21.80;;
39788;SDS011;25478;42.626;23.320;2022-11-11T07:45:40;39.63;;;20.88;;
39788;SDS011;25478;42.626;23.320;2022-11-11T07:48:24;37.53;;;20.83;;
39788;SDS011;25478;42.626;23.320;2022-11-11T07:51:08;35.45;;;19.63;;
39788;SDS011;25478;42.626;23.320;2022-11-11T07:53:52;35.45;;;21.48;;
39788;SDS011;25478;42.626;23.320;2022-11-11T07:56:36;36.03;;;20.80;;
39788;SDS011;25478;42.626;23.320;2022-11-11T07:59:20;36.03;;;21.08;;
39788;SDS011;25478;42.626;23.320;2022-11-11T08:02:04;36.65;;;20.40;;
39788;SDS011;25478;42.626;23.320;2022-11-11T08:04:48;37.47;;;20.17;;
39788;SDS011;25478;42.626;23.320;2022-11-11T08:07:33;31.27;;;18.48;;
39788;SDS011;25478;42.626;23.320;2022-11-11T08:10:17;31.30;;;19.03;;
39788;SDS011;25478;42.626;23.320;2022-11-11T08:13:01;36.50;;;19.85;;
39788;SDS011;25478;42.626;23.320;2022-11-11T08:16:11;34.67;;;19.67;;
39788;SDS011;25478;42.626;23.320;2022-11-11T08:18:57;36.80;;;20.50;;
39788;SDS011;25478;42.626;23.320;2022-11-11T08:21:41;32.97;;;19.77;;
39788;SDS011;25478;42.626;23.320;2022-11-11T08:24:25;32.45;;;18.88;;
39788;SDS011;25478;42.626;23.320;2022-11-11T08:27:09;34.80;;;19.80;;
39788;SDS011;25478;42.626;23.320;2022-11-11T08:29:53;35.28;;;20.42;;
39788;SDS011;25478;42.626;23.320;2022-11-11T08:32:37;42.67;;;21.33;;
39788;SDS011;25478;42.626;23.320;2022-11-11T08:35:21;36.03;;;20.30;;
39788;SDS011;25478;42.626;23.320;2022-11-11T08:38:05;35.13;;;19.08;;
39788;SDS011;25478;42.626;23.320;2022-11-11T08:40:50;32.72;;;17.95;;
39788;SDS011;25478;42.626;23.320;2022-11-11T08:43:34;31.40;;;18.40;;
39788;SDS011;25478;42.626;23.320;2022-11-11T08:46:18;31.13;;;18.20;;
39788;SDS011;25478;42.626;23.320;2022-11-11T08:49:03;30.75;;;18.52;;
39788;SDS011;25478;42.626;23.320;2022-11-11T08:51:47;22.98;;;13.68;;
39788;SDS011;25478;42.626;23.320;2022-11-11T08:54:31;31.20;;;18.10;;
39788;SDS011;25478;42.626;23.320;2022-11-11T08:57:16;29.20;;;17.23;;
39788;SDS011;25478;42.626;23.320;2022-11-11T09:00:00;27.73;;;16.45;;
39788;SDS011;25478;42.626;23.320;2022-11-11T09:02:45;31.15;;;17.38;;
39788;SDS011;25478;42.626;23.320;2022-11-11T09:05:28;28.52;;;16.00;;
39788;SDS011;25478;42.626;23.320;2022-11-11T09:08:12;28.58;;;16.67;;
39788;SDS011;25478;42.626;23.320;2022-11-11T09:10:57;23.88;;;14.88;;
39788;SDS011;25478;42.626;23.320;2022-11-11T09:13:41;24.67;;;15.75;;
39788;SDS011;25478;42.626;23.320;2022-11-11T09:16:25;26.67;;;15.85;;
39788;SDS011;25478;42.626;23.320;2022-11-11T09:19:09;24.95;;;14.88;;
39788;SDS011;25478;42.626;23.320;2022-11-11T09:21:53;23.27;;;14.40;;
39788;SDS011;25478;42.626;23.320;2022-11-11T09:24:37;22.98;;;14.25;;
39788;SDS011;25478;42.626;23.320;2022-11-11T09:27:21;22.05;;;13.20;;
39788;SDS011;25478;42.626;23.320;2022-11-11T09:30:06;23.65;;;14.18;;
39788;SDS011;25478;42.626;23.320;2022-11-11T09:32:51;21.40;;;13.17;;
39788;SDS011;25478;42.626;23.320;2022-11-11T09:35:35;21.98;;;13.23;;
39788;SDS011;25478;42.626;23.320;2022-11-11T09:38:20;23.48;;;12.85;;
39788;SDS011;25478;42.626;23.320;2022-11-11T09:43:58;24.77;;;14.37;;
39788;SDS011;25478;42.626;23.320;2022-11-11T09:46:46;20.43;;;12.77;;
39788;SDS011;25478;42.626;23.320;2022-11-11T09:52:28;19.60;;;11.87;;
39788;SDS011;25478;42.626;23.320;2022-11-11T10:01:44;17.20;;;11.43;;
39788;SDS011;25478;42.626;23.320;2022-11-11T10:04:34;17.73;;;12.13;;
39788;SDS011;25478;42.626;23.320;2022-11-11T10:07:27;21.73;;;12.70;;
39788;SDS011;25478;42.626;23.320;2022-11-11T10:10:42;19.23;;;13.87;;
39788;SDS011;25478;42.626;23.320;2022-11-11T10:13:35;21.43;;;14.40;;
39788;SDS011;25478;42.626;23.320;2022-11-11T10:19:32;23.83;;;15.00;;
39788;SDS011;25478;42.626;23.320;2022-11-11T10:25:18;18.33;;;12.20;;
39788;SDS011;25478;42.626;23.320;2022-11-11T10:28:04;22.30;;;12.63;;
39788;SDS011;25478;42.626;23.320;2022-11-11T10:30:53;19.37;;;11.60;;
39788;SDS011;25478;42.626;23.320;2022-11-11T10:36:48;24.93;;;12.13;;
39788;SDS011;25478;42.626;23.320;2022-11-11T10:42:29;16.93;;;10.73;;
39788;SDS011;25478;42.626;23.320;2022-11-11T10:48:15;18.03;;;10.90;;
39788;SDS011;25478;42.626;23.320;2022-11-11T10:51:20;19.13;;;11.27;;
39788;SDS011;25478;42.626;23.320;2022-11-11T10:57:02;19.20;;;12.63;;
39788;SDS011;25478;42.626;23.320;2022-11-11T10:59:52;19.15;;;11.10;;
39788;SDS011;25478;42.626;23.320;2022-11-11T11:06:19;31.30;;;12.97;;
39788;SDS011;25478;42.626;23.320;2022-11-11T11:09:08;23.70;;;11.77;;
39788;SDS011;25478;42.626;23.320;2022-11-11T11:12:00;19.57;;;10.53;;
39788;SDS011;25478;42.626;23.320;2022-11-11T11:14:48;27.30;;;10.63;;
39788;SDS011;25478;42.626;23.320;2022-11-11T11:17:38;14.57;;;9.57;;
39788;SDS011;25478;42.626;23.320;2022-11-11T11:20:30;12.77;;;9.60;;
39788;SDS011;25478;42.626;23.320;2022-11-11T11:23:14;14.70;;;9.73;;
39788;SDS011;25478;42.626;23.320;2022-11-11T11:26:21;15.17;;;9.10;;
39788;SDS011;25478;42.626;23.320;2022-11-11T11:29:05;20.08;;;9.48;;
39788;SDS011;25478;42.626;23.320;2022-11-11T11:31:49;14.32;;;9.15;;
39788;SDS011;25478;42.626;23.320;2022-11-11T11:34:41;20.48;;;9.45;;
39788;SDS011;25478;42.626;23.320;2022-11-11T11:37:35;19.13;;;8.83;;
39788;SDS011;25478;42.626;23.320;2022-11-11T11:43:35;13.23;;;8.20;;
39788;SDS011;25478;42.626;23.320;2022-11-11T11:46:27;12.57;;;7.57;;
39788;SDS011;25478;42.626;23.320;2022-11-11T12:01:47;29.07;;;9.40;;
39788;SDS011;25478;42.626;23.320;2022-11-11T12:34:40;17.80;;;9.90;;
39788;SDS011;25478;42.626;23.320;2022-11-11T12:37:37;13.07;;;7.90;;
39788;SDS011;25478;42.626;23.320;2022-11-11T12:43:50;13.00;;;7.78;;
39788;SDS011;25478;42.626;23.320;2022-11-11T12:46:53;11.20;;;6.70;;
39788;SDS011;25478;42.626;23.320;2022-11-11T12:53:13;12.27;;;7.10;;
39788;SDS011;25478;42.626;23.320;2022-11-11T13:14:38;13.63;;;8.50;;
39788;SDS011;25478;42.626;23.320;2022-11-11T13:17:42;16.00;;;8.20;;
39788;SDS011;25478;42.626;23.320;2022-11-11T13:20:47;15.38;;;8.02;;
39788;SDS011;25478;42.626;23.320;2022-11-11T13:23:38;15.60;;;8.40;;
39788;SDS011;25478;42.626;23.320;2022-11-11T13:26:26;12.50;;;7.70;;
39788;SDS011;25478;42.626;23.320;2022-11-11T13:29:21;13.27;;;7.67;;
39788;SDS011;25478;42.626;23.320;2022-11-11T13:32:49;10.80;;;7.30;;
39788;SDS011;25478;42.626;23.320;2022-11-11T13:35:44;14.13;;;7.40;;
39788;SDS011;25478;42.626;23.320;2022-11-11T13:38:33;14.27;;;6.97;;
39788;SDS011;25478;42.626;23.320;2022-11-11T13:41:22;16.33;;;7.83;;
39788;SDS011;25478;42.626;23.320;2022-11-11T13:44:17;14.77;;;8.00;;
39788;SDS011;25478;42.626;23.320;2022-11-11T13:47:19;13.50;;;7.78;;
39788;SDS011;25478;42.626;23.320;2022-11-11T13:56:08;13.93;;;8.80;;
39788;SDS011;25478;42.626;23.320;2022-11-11T13:58:54;13.47;;;8.30;;
39788;SDS011;25478;42.626;23.320;2022-11-11T14:01:39;22.97;;;10.93;;
39788;SDS011;25478;42.626;23.320;2022-11-11T14:04:23;18.92;;;9.30;;
39788;SDS011;25478;42.626;23.320;2022-11-11T14:07:07;13.75;;;9.20;;
39788;SDS011;25478;42.626;23.320;2022-11-11T14:09:52;12.70;;;6.82;;
39788;SDS011;25478;42.626;23.320;2022-11-11T14:12:39;16.00;;;9.23;;
39788;SDS011;25478;42.626;23.320;2022-11-11T14:18:35;13.93;;;9.10;;
39788;SDS011;25478;42.626;23.320;2022-11-11T14:24:33;15.77;;;9.53;;
39788;SDS011;25478;42.626;23.320;2022-11-11T14:27:32;17.00;;;9.33;;
39788;SDS011;25478;42.626;23.320;2022-11-11T14:30:37;15.60;;;9.17;;
39788;SDS011;25478;42.626;23.320;2022-11-11T14:51:50;18.53;;;10.97;;
39788;SDS011;25478;42.626;23.320;2022-11-11T15:00:32;22.93;;;12.20;;
39788;SDS011;25478;42.626;23.320;2022-11-11T15:03:31;20.20;;;12.47;;
39788;SDS011;25478;42.626;23.320;2022-11-11T15:06:21;25.27;;;13.80;;
39788;SDS011;25478;42.626;23.320;2022-11-11T15:09:28;27.10;;;14.70;;
39788;SDS011;25478;42.626;23.320;2022-11-11T15:12:32;24.47;;;15.27;;
39788;SDS011;25478;42.626;23.320;2022-11-11T15:15:26;27.57;;;16.43;;
39788;SDS011;25478;42.626;23.320;2022-11-11T15:21:34;29.30;;;16.10;;
39788;SDS011;25478;42.626;23.320;2022-11-11T15:39:39;27.67;;;14.03;;
39788;SDS011;25478;42.626;23.320;2022-11-11T15:42:36;25.43;;;14.03;;
39788;SDS011;25478;42.626;23.320;2022-11-11T15:45:23;26.30;;;14.03;;
39788;SDS011;25478;42.626;23.320;2022-11-11T15:48:19;27.63;;;15.27;;
39788;SDS011;25478;42.626;23.320;2022-11-11T15:51:15;27.57;;;14.53;;
39788;SDS011;25478;42.626;23.320;2022-11-11T15:54:20;27.60;;;15.00;;
39788;SDS011;25478;42.626;23.320;2022-11-11T16:03:17;33.40;;;16.57;;
39788;SDS011;25478;42.626;23.320;2022-11-11T16:06:09;40.47;;;19.50;;
39788;SDS011;25478;42.626;23.320;2022-11-11T16:08:55;41.77;;;21.87;;
39788;SDS011;25478;42.626;23.320;2022-11-11T16:11:39;40.80;;;22.67;;
39788;SDS011;25478;42.626;23.320;2022-11-11T16:14:27;35.27;;;19.87;;
39788;SDS011;25478;42.626;23.320;2022-11-11T16:17:19;34.13;;;17.60;;
39788;SDS011;25478;42.626;23.320;2022-11-11T16:20:11;36.63;;;20.50;;
39788;SDS011;25478;42.626;23.320;2022-11-11T16:22:58;42.53;;;23.17;;
39788;SDS011;25478;42.626;23.320;2022-11-11T16:25:46;36.73;;;22.20;;
39788;SDS011;25478;42.626;23.320;2022-11-11T16:28:52;42.07;;;24.40;;
39788;SDS011;25478;42.626;23.320;2022-11-11T16:31:37;37.10;;;21.33;;
39788;SDS011;25478;42.626;23.320;2022-11-11T16:37:10;38.47;;;22.30;;
39788;SDS011;25478;42.626;23.320;2022-11-11T16:43:20;41.60;;;21.57;;
39788;SDS011;25478;42.626;23.320;2022-11-11T16:46:14;41.43;;;23.00;;
39788;SDS011;25478;42.626;23.320;2022-11-11T16:49:23;43.77;;;24.37;;
39788;SDS011;25478;42.626;23.320;2022-11-11T16:52:19;41.47;;;23.40;;
39788;SDS011;25478;42.626;23.320;2022-11-11T16:55:06;41.40;;;23.77;;
39788;SDS011;25478;42.626;23.320;2022-11-11T16:57:54;38.53;;;20.83;;
39788;SDS011;25478;42.626;23.320;2022-11-11T17:00:38;38.95;;;21.80;;
39788;SDS011;25478;42.626;23.320;2022-11-11T17:03:23;35.33;;;19.83;;
39788;SDS011;25478;42.626;23.320;2022-11-11T17:06:08;36.83;;;20.75;;
39788;SDS011;25478;42.626;23.320;2022-11-11T17:08:52;35.17;;;19.35;;
39788;SDS011;25478;42.626;23.320;2022-11-11T17:11:44;36.00;;;19.95;;
39788;SDS011;25478;42.626;23.320;2022-11-11T17:14:30;33.63;;;18.70;;
39788;SDS011;25478;42.626;23.320;2022-11-11T17:17:16;34.00;;;18.73;;
39788;SDS011;25478;42.626;23.320;2022-11-11T17:20:02;33.55;;;18.30;;
39788;SDS011;25478;42.626;23.320;2022-11-11T17:22:50;37.30;;;21.43;;
39788;SDS011;25478;42.626;23.320;2022-11-11T17:25:35;32.40;;;18.83;;
39788;SDS011;25478;42.626;23.320;2022-11-11T17:28:19;35.20;;;20.20;;
39788;SDS011;25478;42.626;23.320;2022-11-11T17:31:03;36.15;;;19.20;;
39788;SDS011;25478;42.626;23.320;2022-11-11T17:33:48;35.40;;;21.13;;
39788;SDS011;25478;42.626;23.320;2022-11-11T17:36:32;41.05;;;23.63;;
39788;SDS011;25478;42.626;23.320;2022-11-11T17:39:16;37.78;;;21.50;;
39788;SDS011;25478;42.626;23.320;2022-11-11T17:42:00;35.33;;;20.73;;
39788;SDS011;25478;42.626;23.320;2022-11-11T17:44:44;39.58;;;21.10;;
39788;SDS011;25478;42.626;23.320;2022-11-11T17:47:28;38.85;;;20.75;;
39788;SDS011;25478;42.626;23.320;2022-11-11T17:50:14;54.20;;;31.23;;
39788;SDS011;25478;42.626;23.320;2022-11-11T17:52:58;78.78;;;42.28;;
39788;SDS011;25478;42.626;23.320;2022-11-11T17:55:42;85.45;;;45.83;;
39788;SDS011;25478;42.626;23.320;2022-11-11T17:58:27;54.17;;;30.42;;
39788;SDS011;25478;42.626;23.320;2022-11-11T18:01:12;37.33;;;22.45;;
39788;SDS011;25478;42.626;23.320;2022-11-11T18:03:58;36.80;;;21.47;;
39788;SDS011;25478;42.626;23.320;2022-11-11T18:06:42;37.38;;;19.83;;
39788;SDS011;25478;42.626;23.320;2022-11-11T18:09:26;37.33;;;20.45;;
39788;SDS011;25478;42.626;23.320;2022-11-11T18:12:10;36.78;;;20.73;;
39788;SDS011;25478;42.626;23.320;2022-11-11T18:14:54;35.92;;;20.35;;
39788;SDS011;25478;42.626;23.320;2022-11-11T18:17:38;36.25;;;20.77;;
39788;SDS011;25478;42.626;23.320;2022-11-11T18:20:22;40.13;;;22.07;;
39788;SDS011;25478;42.626;23.320;2022-11-11T18:23:06;39.30;;;20.92;;
39788;SDS011;25478;42.626;23.320;2022-11-11T18:25:53;39.05;;;21.50;;
39788;SDS011;25478;42.626;23.320;2022-11-11T18:28:37;41.37;;;24.00;;
39788;SDS011;25478;42.626;23.320;2022-11-11T18:31:22;42.55;;;25.23;;
39788;SDS011;25478;42.626;23.320;2022-11-11T18:34:06;46.28;;;25.20;;
39788;SDS011;25478;42.626;23.320;2022-11-11T18:36:50;39.28;;;21.70;;
39788;SDS011;25478;42.626;23.320;2022-11-11T18:39:34;36.57;;;20.23;;
39788;SDS011;25478;42.626;23.320;2022-11-11T18:42:18;35.05;;;20.10;;
39788;SDS011;25478;42.626;23.320;2022-11-11T18:45:02;36.08;;;19.75;;
39788;SDS011;25478;42.626;23.320;2022-11-11T18:47:47;33.85;;;19.25;;
39788;SDS011;25478;42.626;23.320;2022-11-11T18:50:31;35.05;;;19.38;;
39788;SDS011;25478;42.626;23.320;2022-11-11T18:53:16;33.30;;;19.23;;
39788;SDS011;25478;42.626;23.320;2022-11-11T18:56:08;41.17;;;21.67;;
39788;SDS011;25478;42.626;23.320;2022-11-11T18:58:54;40.37;;;21.70;;
39788;SDS011;25478;42.626;23.320;2022-11-11T19:01:40;47.40;;;22.50;;
39788;SDS011;25478;42.626;23.320;2022-11-11T19:04:24;52.10;;;25.48;;
39788;SDS011;25478;42.626;23.320;2022-11-11T19:07:08;43.50;;;23.40;;
39788;SDS011;25478;42.626;23.320;2022-11-11T19:09:52;42.05;;;22.15;;
39788;SDS011;25478;42.626;23.320;2022-11-11T19:12:36;42.65;;;22.45;;